Time;durP1;ratioP1;P1;durP2;ratioP2;P2;SDS_P1;SDS_P2;PMS_P1;PMS_P2;Temp;Humidity;BMP_temperature;BMP_pressure;BME280_temperature;BME280_humidity;BME280_pressure;Samples;Min_cycle;Max_cycle;Signal;HPM_P1;HPM_P2
2023/08/13 00:01:31;;;;;;;;;;;;;;;21.94;29.18;98287.25;4923417;29;1249;-75
2023/08/13 00:03:56;;;;;;;;;;;;;;;21.77;29.54;98284.41;4923363;29;1156;-75
2023/08/13 00:06:22;;;;;;;;;;;;;;;21.79;29.44;98292.47;4907608;29;1121;-75
2023/08/13 00:08:47;;;;;;;;;;;;;;;21.65;29.53;98292.78;4923126;29;1005;-75
2023/08/13 00:11:13;;;;;;;;;;;;;;;21.67;29.94;98290.31;4907425;29;1486;-75
2023/08/13 00:13:39;;;;;;;;;;;;;;;21.68;29.80;98287.03;4923172;29;1031;-75
2023/08/13 00:16:05;;;;;;;;;;;;;;;21.81;29.51;98287.97;4938631;29;1974;-75
2023/08/13 00:18:32;;;;;;;;;;;;;;;21.60;29.68;98296.91;4939087;29;992;-75
2023/08/13 00:20:58;;;;;;;;;;;;;;;21.61;29.74;98289.25;4922777;29;1024;-75
2023/08/13 00:23:23;;;;;;;;;;;;;;;21.77;29.47;98295.75;4923222;29;1121;-75
2023/08/13 00:25:49;;;;;;;;;;;;;;;21.71;29.82;98286.19;4939105;29;986;-75
2023/08/13 00:28:14;;;;;;;;;;;;;;;21.58;30.14;98290.91;4921671;29;909;-77
2023/08/13 00:30:40;;;;;;;;;;;;;;;21.92;29.20;98295.41;4922985;29;1336;-75
2023/08/13 00:33:06;;;;;;;;;;;;;;;21.87;29.49;98290.28;4922763;29;1159;-75
2023/08/13 00:35:31;;;;;;;;;;;;;;;21.91;29.21;98290.97;4938486;29;1906;-75
2023/08/13 00:37:57;;;;;;;;;;;;;;;21.73;29.56;98288.56;4926687;28;1254;-75
2023/08/13 00:40:23;;;;;;;;;;;;;;;21.71;29.50;98280.50;4946403;28;1257;-76
2023/08/13 00:42:48;;;;;;;;;;;;;;;21.69;29.68;98288.63;4945860;28;1157;-75
2023/08/13 00:45:14;;;;;;;;;;;;;;;21.88;29.28;98289.03;4978307;28;1318;-76
2023/08/13 00:47:39;;;;;;;;;;;;;;;21.87;29.22;98284.63;4979541;28;991;-76
2023/08/13 00:50:05;;;;;;;;;;;;;;;22.14;29.08;98284.41;4925536;29;1170;-75
2023/08/13 00:52:31;;;;;;;;;;;;;;;21.94;29.14;98275.94;4957410;29;970;-75
2023/08/13 00:54:57;;;;;;;;;;;;;;;22.01;29.00;98275.75;4925587;29;1919;-75
2023/08/13 00:57:23;;;;;;;;;;;;;;;21.77;29.39;98267.41;4941419;29;1235;-75
2023/08/13 00:59:49;;;;;;;;;;;;;;;21.84;29.37;98266.44;4941509;29;1020;-75
2023/08/13 01:02:15;;;;;;;;;;;;;;;21.97;29.10;98266.56;4957500;29;936;-76
2023/08/13 01:04:40;;;;;;;;;;;;;;;21.55;29.98;98267.09;4922021;29;1109;-75
2023/08/13 01:07:20;;;;;;;;;;;;;;;21.64;29.58;98269.31;4922275;29;1067;-76
2023/08/13 01:10:15;;;;;;;;;;;;;;;21.43;30.08;98264.94;4921958;29;916;-76
2023/08/13 01:12:48;;;;;;;;;;;;;;;21.64;29.84;98266.50;4829135;29;1248;-76
2023/08/13 01:15:15;;;;;;;;;;;;;;;21.75;29.66;98274.75;4844154;29;1911;-75
2023/08/13 01:17:41;;;;;;;;;;;;;;;21.86;29.57;98275.28;4829331;29;1070;-75
2023/08/13 01:20:07;;;;;;;;;;;;;;;21.83;29.43;98267.69;4815653;29;1304;-75
2023/08/13 01:22:39;;;;;;;;;;;;;;;21.85;29.60;98268.81;4862674;29;1111;-75
2023/08/13 01:25:05;;;;;;;;;;;;;;;21.83;29.29;98262.81;4862203;29;1220;-76
2023/08/13 01:27:45;;;;;;;;;;;;;;;21.80;29.80;98260.84;4844055;29;1214;-75
2023/08/13 01:30:14;;;;;;;;;;;;;;;21.74;30.16;98261.81;4843834;29;1103;-75
2023/08/13 01:32:41;;;;;;;;;;;;;;;21.77;30.15;98273.09;4843898;29;962;-75
2023/08/13 01:35:07;;;;;;;;;;;;;;;21.71;30.28;98262.69;4848767;29;1903;-74
2023/08/13 01:37:32;;;;;;;;;;;;;;;21.88;30.06;98266.38;4847372;29;1056;-75
2023/08/13 01:39:58;;;;;;;;;;;;;;;21.75;30.62;98269.88;4861861;29;1095;-76
2023/08/13 01:42:24;;;;;;;;;;;;;;;21.78;30.38;98260.50;4846898;29;1211;-75
2023/08/13 01:44:50;;;;;;;;;;;;;;;21.72;30.61;98265.09;4862303;29;1154;-75
2023/08/13 01:47:16;;;;;;;;;;;;;;;21.63;30.73;98264.91;4862128;29;1085;-75
2023/08/13 01:49:41;;;;;;;;;;;;;;;21.82;30.37;98269.72;4904405;29;983;-75
2023/08/13 01:52:07;;;;;;;;;;;;;;;21.82;30.35;98269.72;4886842;29;1126;-75
2023/08/13 01:54:32;;;;;;;;;;;;;;;21.96;30.25;98268.56;4902333;29;1964;-76
2023/08/13 01:56:58;;;;;;;;;;;;;;;22.11;29.96;98269.06;4886551;29;1219;-75
2023/08/13 01:59:24;;;;;;;;;;;;;;;21.90;30.25;98269.53;4902267;29;1126;-75
2023/08/13 02:01:49;;;;;;;;;;;;;;;22.15;29.81;98269.78;4902297;29;1492;-75
2023/08/13 02:04:15;;;;;;;;;;;;;;;21.84;30.47;98272.91;4898957;29;1268;-75
2023/08/13 02:06:41;;;;;;;;;;;;;;;22.06;30.24;98273.19;4880558;29;1603;-76
2023/08/13 02:09:07;;;;;;;;;;;;;;;22.02;30.11;98269.66;4880388;29;933;-75
2023/08/13 02:11:32;;;;;;;;;;;;;;;22.19;29.83;98269.69;4908496;29;947;-75
2023/08/13 02:13:58;;;;;;;;;;;;;;;22.32;29.61;98274.19;4917672;29;1009;-75
2023/08/13 02:16:23;;;;;;;;;;;;;;;22.43;29.78;98275.97;4917835;29;2066;-75
2023/08/13 02:18:49;;;;;;;;;;;;;;;22.28;29.73;98273.50;4901875;29;1179;-75
2023/08/13 02:21:16;;;;;;;;;;;;;;;22.17;30.01;98275.78;4886577;29;1186;-75
2023/08/13 02:23:42;;;;;;;;;;;;;;;22.21;29.96;98285.00;4917810;29;1010;-75
2023/08/13 02:26:07;;;;;;;;;;;;;;;22.04;30.37;98280.56;4901656;29;924;-76
2023/08/13 02:28:33;;;;;;;;;;;;;;;22.23;30.06;98282.53;4917732;29;1339;-75
2023/08/13 02:30:59;;;;;;;;;;;;;;;21.87;30.47;98287.44;4898451;29;1103;-75
2023/08/13 02:33:24;;;;;;;;;;;;;;;22.04;30.32;98286.22;4898657;29;967;-75
2023/08/13 02:35:50;;;;;;;;;;;;;;;22.03;30.09;98290.28;4882928;29;1915;-75
2023/08/13 02:38:16;;;;;;;;;;;;;;;22.10;30.35;98290.94;4898624;29;1239;-74
2023/08/13 02:40:41;;;;;;;;;;;;;;;22.35;29.94;98296.00;4883260;29;991;-76
2023/08/13 02:43:07;;;;;;;;;;;;;;;22.18;30.45;98296.47;4864350;29;1225;-76
2023/08/13 02:45:33;;;;;;;;;;;;;;;22.31;29.91;98295.28;4879674;29;1126;-75
2023/08/13 02:47:58;;;;;;;;;;;;;;;21.98;30.65;98293.66;4864386;29;1088;-75
2023/08/13 02:50:24;;;;;;;;;;;;;;;22.00;30.50;98296.84;4864251;29;1072;-75
2023/08/13 02:52:49;;;;;;;;;;;;;;;21.89;30.50;98291.41;4879678;29;1260;-75
2023/08/13 02:55:15;;;;;;;;;;;;;;;22.08;30.48;98282.06;4864477;29;1907;-75
2023/08/13 02:57:40;;;;;;;;;;;;;;;21.90;30.55;98287.34;4864691;29;1166;-76
2023/08/13 03:00:06;;;;;;;;;;;;;;;22.16;30.37;98288.38;4864536;29;977;-75
2023/08/13 03:02:32;;;;;;;;;;;;;;;22.23;30.15;98293.88;4874060;29;2010;-75
2023/08/13 03:04:58;;;;;;;;;;;;;;;22.28;30.06;98299.03;4864364;29;1055;-75
2023/08/13 03:07:23;;;;;;;;;;;;;;;22.26;30.02;98290.16;4861086;29;1326;-75
2023/08/13 03:09:49;;;;;;;;;;;;;;;21.90;30.65;98292.22;4845609;29;932;-76
2023/08/13 03:12:14;;;;;;;;;;;;;;;22.07;30.22;98294.66;4861291;29;1486;-75
2023/08/13 03:14:41;;;;;;;;;;;;;;;22.09;30.24;98288.53;4848590;29;1981;-75
2023/08/13 03:17:07;;;;;;;;;;;;;;;21.78;30.58;98290.88;4898507;29;1053;-75
2023/08/13 03:19:32;;;;;;;;;;;;;;;21.83;30.71;98291.16;4898396;29;987;-75
2023/08/13 03:21:58;;;;;;;;;;;;;;;21.88;30.56;98294.69;4898260;29;1018;-75
2023/08/13 03:24:23;;;;;;;;;;;;;;;21.98;30.36;98293.66;4898387;29;1198;-76
2023/08/13 03:26:49;;;;;;;;;;;;;;;22.19;30.12;98290.34;4898107;29;1141;-76
2023/08/13 03:29:16;;;;;;;;;;;;;;;22.09;30.17;98289.31;4897916;29;1057;-76
2023/08/13 03:31:43;;;;;;;;;;;;;;;22.24;30.07;98286.97;4916833;29;1127;-76
2023/08/13 03:34:19;;;;;;;;;;;;;;;21.73;30.92;98289.34;4901328;29;1218;-75
2023/08/13 03:36:45;;;;;;;;;;;;;;;21.98;30.43;98293.66;4917170;29;1907;-76
2023/08/13 03:39:11;;;;;;;;;;;;;;;21.97;30.27;98292.84;4898100;29;1350;-76
2023/08/13 03:41:36;;;;;;;;;;;;;;;22.05;30.31;98294.28;4862998;29;1693;-77
2023/08/13 03:44:02;;;;;;;;;;;;;;;21.96;30.67;98296.13;4900511;29;1034;-76
2023/08/13 03:46:28;;;;;;;;;;;;;;;22.18;30.14;98296.47;4907953;29;1301;-76
2023/08/13 03:48:53;;;;;;;;;;;;;;;22.16;30.28;98296.88;4885477;29;1224;-75
2023/08/13 03:51:22;;;;;;;;;;;;;;;22.22;30.09;98300.78;4901623;29;1325;-76
2023/08/13 03:53:48;;;;;;;;;;;;;;;21.94;30.66;98301.44;4901013;29;1166;-76
2023/08/13 03:56:14;;;;;;;;;;;;;;;21.96;30.59;98296.13;4900957;29;1977;-75
2023/08/13 03:58:39;;;;;;;;;;;;;;;22.27;30.11;98294.56;4854500;29;1629;-76
2023/08/13 04:01:07;;;;;;;;;;;;;;;22.25;30.14;98302.72;4872815;29;1667;-76
2023/08/13 04:03:35;;;;;;;;;;;;;;;22.14;30.30;98301.41;4877352;29;1250;-75
2023/08/13 04:06:01;;;;;;;;;;;;;;;22.23;30.24;98299.56;4879715;29;1173;-76
2023/08/13 04:08:26;;;;;;;;;;;;;;;22.05;30.80;98304.81;4882496;29;1180;-76
2023/08/13 04:10:52;;;;;;;;;;;;;;;22.10;30.65;98298.63;4912891;29;1055;-76
2023/08/13 04:13:19;;;;;;;;;;;;;;;21.99;30.67;98298.06;4870537;29;1768;-75
2023/08/13 04:15:44;;;;;;;;;;;;;;;22.05;30.76;98310.47;4885656;29;1986;-77
2023/08/13 04:18:10;;;;;;;;;;;;;;;22.17;30.68;98300.50;4908200;29;1161;-76
2023/08/13 04:20:39;;;;;;;;;;;;;;;21.99;31.00;98298.06;4904073;29;1428;-76
2023/08/13 04:23:06;;;;;;;;;;;;;;;22.16;30.44;98305.38;4919901;29;1134;-76
2023/08/13 04:25:31;;;;;;;;;;;;;;;22.26;30.23;98304.31;4934815;29;1698;-75
2023/08/13 04:27:57;;;;;;;;;;;;;;;21.99;31.12;98304.53;4903825;29;1329;-76
2023/08/13 04:30:23;;;;;;;;;;;;;;;22.17;30.80;98309.81;4935116;29;1022;-76
2023/08/13 04:32:54;;;;;;;;;;;;;;;22.00;31.06;98299.66;4922819;29;982;-76
2023/08/13 04:35:23;;;;;;;;;;;;;;;22.20;30.79;98300.44;4923300;29;1902;-76
2023/08/13 04:37:49;;;;;;;;;;;;;;;22.28;30.51;98290.53;4943057;29;1063;-76
2023/08/13 04:40:16;;;;;;;;;;;;;;;22.18;30.64;98300.09;4942581;29;1433;-76
2023/08/13 04:42:42;;;;;;;;;;;;;;;22.29;30.62;98306.28;4941656;29;1784;-75
2023/08/13 04:45:07;;;;;;;;;;;;;;;22.34;30.35;98293.63;4927851;28;1650;-76
2023/08/13 04:47:33;;;;;;;;;;;;;;;22.24;30.66;98306.03;4890825;29;1055;-76
2023/08/13 04:49:59;;;;;;;;;;;;;;;22.10;30.97;98312.78;4891063;29;1302;-76
2023/08/13 04:52:24;;;;;;;;;;;;;;;22.32;30.85;98310.25;4865842;29;1345;-77
2023/08/13 04:54:50;;;;;;;;;;;;;;;22.21;30.99;98307.69;4850781;29;1903;-76
2023/08/13 04:57:15;;;;;;;;;;;;;;;22.04;31.19;98309.69;4865860;29;1569;-76
2023/08/13 04:59:41;;;;;;;;;;;;;;;22.26;30.88;98310.00;4846385;29;1694;-76
2023/08/13 05:02:07;;;;;;;;;;;;;;;22.30;30.90;98309.91;4844552;29;1404;-75
2023/08/13 05:04:35;;;;;;;;;;;;;;;22.10;31.48;98318.44;4829123;29;1430;-76
2023/08/13 05:07:00;;;;;;;;;;;;;;;22.19;31.18;98321.50;4844748;29;1014;-76
2023/08/13 05:09:26;;;;;;;;;;;;;;;22.17;31.27;98328.84;4844481;29;1183;-76
2023/08/13 05:11:52;;;;;;;;;;;;;;;22.33;30.88;98314.72;4859757;29;1664;-76
2023/08/13 05:14:18;;;;;;;;;;;;;;;22.44;30.88;98320.13;4847587;29;984;-76
2023/08/13 05:16:43;;;;;;;;;;;;;;;22.34;31.15;98334.09;4847411;29;1915;-76
2023/08/13 05:19:09;;;;;;;;;;;;;;;22.14;31.47;98336.22;4832172;29;1235;-76
2023/08/13 05:21:35;;;;;;;;;;;;;;;22.35;31.09;98340.56;4862826;29;1109;-76
2023/08/13 05:24:00;;;;;;;;;;;;;;;22.38;31.24;98347.38;4883387;29;1240;-76
2023/08/13 05:26:26;;;;;;;;;;;;;;;22.36;30.83;98337.28;4952052;29;1694;-76
2023/08/13 05:28:51;;;;;;;;;;;;;;;22.50;30.85;98346.69;4926027;29;1797;-75
2023/08/13 05:31:17;;;;;;;;;;;;;;;22.39;31.14;98351.84;4926599;29;2198;-76
2023/08/13 05:33:42;;;;;;;;;;;;;;;22.34;30.91;98353.94;4936919;29;1635;-76
2023/08/13 05:36:09;;;;;;;;;;;;;;;22.42;31.06;98351.72;4937355;29;1972;-76
2023/08/13 05:38:34;;;;;;;;;;;;;;;22.31;31.25;98346.31;4937545;29;1102;-76
2023/08/13 05:41:03;;;;;;;;;;;;;;;22.23;31.47;98350.56;4936954;29;1170;-76
2023/08/13 05:43:29;;;;;;;;;;;;;;;22.28;31.20;98350.06;4956029;28;1238;-76
2023/08/13 05:45:55;;;;;;;;;;;;;;;22.29;31.38;98348.81;4944956;28;1230;-76
2023/08/13 05:48:20;;;;;;;;;;;;;;;22.54;31.06;98353.06;4946499;29;1416;-76
2023/08/13 05:50:46;;;;;;;;;;;;;;;22.56;30.97;98351.38;4917982;29;1263;-77
2023/08/13 05:53:12;;;;;;;;;;;;;;;22.51;30.80;98348.28;4918188;29;1114;-76
2023/08/13 05:55:37;;;;;;;;;;;;;;;22.27;31.55;98351.25;4902200;29;1907;-76
2023/08/13 05:58:05;;;;;;;;;;;;;;;22.42;31.28;98353.75;4922558;29;1802;-76
2023/08/13 06:00:31;;;;;;;;;;;;;;;22.40;31.27;98347.75;4921249;29;968;-76
2023/08/13 06:02:57;;;;;;;;;;;;;;;22.54;31.24;98350.25;4890083;29;1137;-76
2023/08/13 06:05:23;;;;;;;;;;;;;;;22.47;31.26;98350.41;4916933;29;1608;-75
2023/08/13 06:07:48;;;;;;;;;;;;;;;22.30;31.60;98356.06;4907726;29;2001;-77
2023/08/13 06:10:14;;;;;;;;;;;;;;;22.38;31.43;98350.22;4921316;29;1039;-76
2023/08/13 06:12:39;;;;;;;;;;;;;;;22.48;31.03;98355.63;4921296;29;974;-76
2023/08/13 06:15:05;;;;;;;;;;;;;;;22.50;31.13;98347.50;4921060;29;1975;-76
2023/08/13 06:17:31;;;;;;;;;;;;;;;22.49;31.10;98345.09;4921075;29;987;-76
2023/08/13 06:19:57;;;;;;;;;;;;;;;22.44;31.31;98354.13;4889716;29;1156;-76
2023/08/13 06:22:23;;;;;;;;;;;;;;;22.59;31.11;98347.66;4908110;29;1738;-76
2023/08/13 06:24:49;;;;;;;;;;;;;;;22.62;31.28;98358.09;4921805;29;935;-76
2023/08/13 06:27:14;;;;;;;;;;;;;;;22.54;31.27;98364.41;4938411;29;951;-76
2023/08/13 06:29:40;;;;;;;;;;;;;;;22.58;31.18;98362.28;4938871;29;1078;-76
2023/08/13 06:32:06;;;;;;;;;;;;;;;22.70;31.15;98355.09;4937777;29;904;-76
2023/08/13 06:34:31;;;;;;;;;;;;;;;22.46;31.53;98360.94;4901272;29;1836;-76
2023/08/13 06:36:57;;;;;;;;;;;;;;;22.66;31.12;98366.53;4885993;29;1911;-76
2023/08/13 06:39:23;;;;;;;;;;;;;;;22.58;31.24;98362.28;4902143;29;911;-76
2023/08/13 06:41:49;;;;;;;;;;;;;;;22.48;31.71;98354.81;4879957;29;1016;-75
2023/08/13 06:44:20;;;;;;;;;;;;;;;22.58;31.52;98360.22;4879975;29;1043;-76
2023/08/13 06:46:46;;;;;;;;;;;;;;;22.49;31.61;98360.06;4863087;29;1300;-76
2023/08/13 06:49:11;;;;;;;;;;;;;;;22.67;31.21;98356.78;4883118;29;1151;-76
2023/08/13 06:51:38;;;;;;;;;;;;;;;22.73;30.98;98355.00;4882480;29;1569;-76
2023/08/13 06:54:03;;;;;;;;;;;;;;;22.81;31.01;98349.94;4883234;29;986;-76
2023/08/13 06:56:30;;;;;;;;;;;;;;;22.58;31.17;98350.94;4901267;29;1996;-76
2023/08/13 06:58:56;;;;;;;;;;;;;;;22.38;31.63;98353.84;4886085;29;1041;-75
2023/08/13 07:01:21;;;;;;;;;;;;;;;22.59;31.06;98361.84;4901646;29;1188;-76
2023/08/13 07:03:47;;;;;;;;;;;;;;;22.50;31.56;98358.03;4917250;29;984;-76
2023/08/13 07:06:12;;;;;;;;;;;;;;;22.52;31.46;98352.69;4941384;29;1887;-76
2023/08/13 07:08:38;;;;;;;;;;;;;;;22.61;31.22;98358.56;4939564;29;931;-76
2023/08/13 07:11:04;;;;;;;;;;;;;;;22.50;31.43;98352.38;4923881;29;941;-76
2023/08/13 07:13:29;;;;;;;;;;;;;;;22.48;31.28;98352.00;4911306;29;1090;-76
2023/08/13 07:15:55;;;;;;;;;;;;;;;22.53;31.31;98345.78;4939500;29;1954;-75
2023/08/13 07:18:21;;;;;;;;;;;;;;;22.43;31.49;98355.34;4928026;29;2109;-76
2023/08/13 07:20:46;;;;;;;;;;;;;;;22.51;31.14;98348.28;4904750;29;1048;-76
2023/08/13 07:23:12;;;;;;;;;;;;;;;22.50;31.09;98358.03;4935929;29;1734;-76
2023/08/13 07:25:38;;;;;;;;;;;;;;;22.32;31.32;98353.56;4936364;29;936;-76
2023/08/13 07:28:06;;;;;;;;;;;;;;;22.24;31.67;98352.16;4945457;28;1678;-76
2023/08/13 07:30:31;;;;;;;;;;;;;;;22.24;31.09;98357.84;4976948;28;1565;-76
2023/08/13 07:32:57;;;;;;;;;;;;;;;22.51;31.06;98353.94;4969857;28;1419;-76
2023/08/13 07:35:22;;;;;;;;;;;;;;;22.68;30.55;98358.38;4960402;28;1895;-76
2023/08/13 07:37:48;;;;;;;;;;;;;;;22.70;30.50;98361.56;4944203;28;1617;-76
2023/08/13 07:40:16;;;;;;;;;;;;;;;22.54;30.58;98353.88;4980221;28;1333;-76
2023/08/13 07:42:41;;;;;;;;;;;;;;;22.57;30.65;98352.16;4950832;28;1337;-76
2023/08/13 07:45:07;;;;;;;;;;;;;;;22.41;31.00;98355.00;4966739;28;1027;-76
2023/08/13 07:47:38;;;;;;;;;;;;;;;22.56;30.82;98356.25;4966541;28;1213;-76
2023/08/13 07:50:04;;;;;;;;;;;;;;;22.38;31.04;98358.72;4977015;28;1788;-75
2023/08/13 07:52:30;;;;;;;;;;;;;;;22.25;31.29;98358.63;4961187;28;1038;-77
2023/08/13 07:54:56;;;;;;;;;;;;;;;22.38;30.81;98355.88;4944601;28;1907;-76
2023/08/13 07:57:22;;;;;;;;;;;;;;;22.43;30.77;98353.31;4947031;28;1103;-76
2023/08/13 07:59:47;;;;;;;;;;;;;;;22.43;30.88;98358.19;4963053;28;1158;-76
2023/08/13 08:02:13;;;;;;;;;;;;;;;22.51;30.81;98362.47;4962678;28;1022;-75
2023/08/13 08:04:39;;;;;;;;;;;;;;;22.51;30.86;98346.25;4962751;28;1663;-77
2023/08/13 08:07:04;;;;;;;;;;;;;;;22.39;30.65;98363.16;4946315;28;931;-76
2023/08/13 08:09:30;;;;;;;;;;;;;;;22.63;30.47;98345.50;4962648;28;1538;-76
2023/08/13 08:11:55;;;;;;;;;;;;;;;22.27;30.84;98367.47;4962414;28;946;-75
2023/08/13 08:14:21;;;;;;;;;;;;;;;22.56;30.51;98356.25;4962696;28;954;-75
2023/08/13 08:16:46;;;;;;;;;;;;;;;22.65;30.21;98359.28;4962199;28;1911;-75
2023/08/13 08:19:12;;;;;;;;;;;;;;;22.48;30.43;98360.50;4962763;28;1019;-76
2023/08/13 08:21:38;;;;;;;;;;;;;;;22.60;30.27;98346.41;4980047;28;931;-76
2023/08/13 08:24:04;;;;;;;;;;;;;;;22.54;30.51;98355.91;4929817;28;986;-76
2023/08/13 08:26:30;;;;;;;;;;;;;;;22.34;30.78;98358.81;4941678;29;2017;-76
2023/08/13 08:28:56;;;;;;;;;;;;;;;22.44;30.62;98349.25;4919845;29;955;-75
2023/08/13 08:31:22;;;;;;;;;;;;;;;22.24;30.71;98355.00;4919721;29;980;-76
2023/08/13 08:33:47;;;;;;;;;;;;;;;22.26;30.88;98355.34;4884393;29;1879;-76
2023/08/13 08:36:13;;;;;;;;;;;;;;;22.40;30.50;98342.09;4880418;29;1911;-75
2023/08/13 08:38:38;;;;;;;;;;;;;;;22.52;30.44;98347.81;4882217;29;982;-75
2023/08/13 08:41:04;;;;;;;;;;;;;;;22.46;30.55;98351.66;4882507;29;993;-76
2023/08/13 08:43:30;;;;;;;;;;;;;;;22.45;30.30;98350.06;4866710;29;981;-76
2023/08/13 08:45:56;;;;;;;;;;;;;;;22.33;30.40;98349.53;4881548;29;1204;-75
2023/08/13 08:48:22;;;;;;;;;;;;;;;22.25;30.93;98339.59;4881457;29;1029;-76
2023/08/13 08:50:47;;;;;;;;;;;;;;;22.36;30.85;98342.94;4886081;29;1655;-76
2023/08/13 08:53:13;;;;;;;;;;;;;;;22.65;30.10;98335.78;4884864;29;985;-75
2023/08/13 08:55:39;;;;;;;;;;;;;;;22.51;30.33;98336.94;4900249;29;1907;-75
2023/08/13 08:58:05;;;;;;;;;;;;;;;22.31;30.85;98334.19;4884913;29;1024;-75
2023/08/13 09:00:30;;;;;;;;;;;;;;;22.69;29.99;98336.47;4895616;29;1043;-76
2023/08/13 09:02:56;;;;;;;;;;;;;;;22.35;30.65;98326.41;4884628;29;1029;-76
2023/08/13 09:05:21;;;;;;;;;;;;;;;22.49;30.47;98339.44;4925269;29;1766;-76
2023/08/13 09:07:47;;;;;;;;;;;;;;;22.54;30.17;98330.38;4919231;29;1002;-76
2023/08/13 09:10:12;;;;;;;;;;;;;;;22.36;30.66;98331.59;4919063;29;1076;-76
2023/08/13 09:12:38;;;;;;;;;;;;;;;22.62;30.34;98331.78;4903344;29;989;-76
2023/08/13 09:15:05;;;;;;;;;;;;;;;22.67;30.04;98325.56;4918995;29;1977;-76
2023/08/13 09:17:31;;;;;;;;;;;;;;;22.33;30.66;98320.38;4922786;29;1670;-75
2023/08/13 09:19:56;;;;;;;;;;;;;;;22.27;30.82;98328.59;4937942;29;1003;-76
2023/08/13 09:22:22;;;;;;;;;;;;;;;22.40;30.39;98331.53;4921914;29;1109;-76
2023/08/13 09:24:48;;;;;;;;;;;;;;;22.50;30.41;98324.81;4921859;29;1245;-76
2023/08/13 09:27:14;;;;;;;;;;;;;;;22.42;30.43;98331.09;4921861;29;1098;-76
2023/08/13 09:29:39;;;;;;;;;;;;;;;22.24;30.90;98329.50;4899844;29;1041;-76
2023/08/13 09:32:05;;;;;;;;;;;;;;;22.44;30.23;98325.78;4908480;29;1450;-76
2023/08/13 09:34:31;;;;;;;;;;;;;;;22.74;29.78;98316.06;4902828;29;990;-76
2023/08/13 09:36:57;;;;;;;;;;;;;;;22.35;30.54;98307.34;4902780;29;1911;-76
2023/08/13 09:39:23;;;;;;;;;;;;;;;22.33;30.68;98321.16;4903048;29;987;-76
2023/08/13 09:41:49;;;;;;;;;;;;;;;22.46;30.58;98317.63;4902860;29;1307;-75
2023/08/13 09:44:15;;;;;;;;;;;;;;;22.19;30.80;98309.38;4906592;29;1489;-76
2023/08/13 09:46:40;;;;;;;;;;;;;;;22.43;30.35;98307.16;4934766;29;1327;-75
2023/08/13 09:49:09;;;;;;;;;;;;;;;22.29;30.57;98309.13;4937388;29;1331;-76
2023/08/13 09:51:34;;;;;;;;;;;;;;;22.46;30.27;98315.56;4937405;29;960;-76
2023/08/13 09:54:13;;;;;;;;;;;;;;;22.71;30.10;98309.28;4921448;29;1127;-76
2023/08/13 09:56:40;;;;;;;;;;;;;;;22.55;30.13;98314.97;4937565;29;1907;-76
2023/08/13 09:59:06;;;;;;;;;;;;;;;22.57;30.22;98309.63;4937021;29;1093;-76
2023/08/13 10:01:31;;;;;;;;;;;;;;;22.36;30.67;98303.25;4966591;28;1554;-74
2023/08/13 10:03:57;;;;;;;;;;;;;;;22.31;30.59;98317.97;4956386;29;1062;-75
2023/08/13 10:06:23;;;;;;;;;;;;;;;22.42;30.31;98311.22;4940585;29;920;-76
2023/08/13 10:08:48;;;;;;;;;;;;;;;22.66;30.00;98315.47;4940317;29;912;-76
2023/08/13 10:11:14;;;;;;;;;;;;;;;22.55;30.00;98309.28;4940239;29;1071;-76
2023/08/13 10:13:39;;;;;;;;;;;;;;;22.67;30.19;98324.78;4955567;28;1600;-76
2023/08/13 10:16:05;;;;;;;;;;;;;;;22.49;30.11;98316.75;4957948;28;2178;-76
2023/08/13 10:18:31;;;;;;;;;;;;;;;22.43;30.54;98301.47;4920653;29;997;-76
2023/08/13 10:20:57;;;;;;;;;;;;;;;22.38;30.63;98307.69;4953047;29;967;-75
2023/08/13 10:23:22;;;;;;;;;;;;;;;22.17;30.89;98306.97;4921165;29;921;-75
2023/08/13 10:25:56;;;;;;;;;;;;;;;22.34;30.51;98311.44;4952890;29;1070;-75
2023/08/13 10:28:22;;;;;;;;;;;;;;;21.95;31.42;98289.66;4952224;29;1097;-76
2023/08/13 10:30:48;;;;;;;;;;;;;;;22.08;31.16;98286.94;4948839;29;1667;-76
2023/08/13 10:33:13;;;;;;;;;;;;;;;22.09;31.05;98283.66;4916635;29;1373;-76
2023/08/13 10:35:39;;;;;;;;;;;;;;;22.15;31.17;98281.13;4917722;29;1981;-75
2023/08/13 10:38:05;;;;;;;;;;;;;;;22.39;30.54;98289.47;4917836;29;1230;-76
2023/08/13 10:40:30;;;;;;;;;;;;;;;22.54;30.10;98290.69;4917654;29;1013;-76
2023/08/13 10:42:57;;;;;;;;;;;;;;;22.28;30.91;98290.53;4902095;29;1454;-75
2023/08/13 10:45:23;;;;;;;;;;;;;;;22.20;31.12;98289.09;4901673;29;1195;-75
2023/08/13 10:47:52;;;;;;;;;;;;;;;22.55;30.25;98292.28;4936543;29;1711;-75
2023/08/13 10:50:17;;;;;;;;;;;;;;;22.60;30.02;98280.41;4934411;29;1848;-75
2023/08/13 10:52:49;;;;;;;;;;;;;;;22.57;30.32;98282.06;4933545;29;1081;-76
2023/08/13 10:55:17;;;;;;;;;;;;;;;22.53;30.45;98272.06;4925975;29;1903;-76
2023/08/13 10:57:42;;;;;;;;;;;;;;;22.30;30.90;98279.53;4972780;28;917;-76
2023/08/13 11:00:12;;;;;;;;;;;;;;;22.41;30.71;98286.97;4958002;29;1106;-76
2023/08/13 11:02:38;;;;;;;;;;;;;;;22.40;30.52;98291.03;4973158;28;1130;-76
2023/08/13 11:05:03;;;;;;;;;;;;;;;22.50;30.59;98279.44;4950493;28;1527;-76
2023/08/13 11:07:30;;;;;;;;;;;;;;;22.53;30.35;98267.19;4940577;29;1852;-76
2023/08/13 11:09:56;;;;;;;;;;;;;;;22.59;30.28;98273.13;4958103;29;955;-75
2023/08/13 11:12:21;;;;;;;;;;;;;;;22.43;30.46;98267.47;4958352;28;916;-77
2023/08/13 11:14:47;;;;;;;;;;;;;;;22.28;30.94;98279.19;4962398;29;958;-76
2023/08/13 11:17:12;;;;;;;;;;;;;;;22.32;30.88;98262.06;4976962;28;1918;-75
2023/08/13 11:19:38;;;;;;;;;;;;;;;22.43;30.81;98261.78;4960556;29;925;-76
2023/08/13 11:22:04;;;;;;;;;;;;;;;22.51;30.39;98257.53;4959967;29;1568;-75
2023/08/13 11:24:31;;;;;;;;;;;;;;;22.45;30.78;98259.31;4961733;29;992;-75
2023/08/13 11:26:57;;;;;;;;;;;;;;;22.56;30.31;98249.28;4928645;29;952;-76
2023/08/13 11:29:23;;;;;;;;;;;;;;;22.44;30.45;98246.41;4944630;29;925;-76
2023/08/13 11:31:48;;;;;;;;;;;;;;;22.67;30.43;98249.00;4928842;29;1442;-76
2023/08/13 11:34:15;;;;;;;;;;;;;;;22.54;30.59;98251.00;4954566;29;1607;-76
2023/08/13 11:36:41;;;;;;;;;;;;;;;22.66;30.21;98227.56;4960422;29;1910;-76
2023/08/13 11:39:07;;;;;;;;;;;;;;;22.63;30.13;98245.44;4960209;29;1014;-76
2023/08/13 11:41:32;;;;;;;;;;;;;;;22.48;30.43;98233.69;4961111;29;986;-76
2023/08/13 11:43:59;;;;;;;;;;;;;;;22.59;30.49;98237.06;4976446;28;1207;-75
2023/08/13 11:46:24;;;;;;;;;;;;;;;22.63;30.40;98248.28;4932566;29;1177;-75
2023/08/13 11:48:54;;;;;;;;;;;;;;;22.50;30.54;98250.28;4953677;29;1750;-75
2023/08/13 11:51:24;;;;;;;;;;;;;;;22.63;30.26;98243.41;4928090;29;1701;-75
2023/08/13 11:53:49;;;;;;;;;;;;;;;22.66;30.16;98253.09;4944431;29;932;-76
2023/08/13 11:56:18;;;;;;;;;;;;;;;22.56;30.46;98239.97;4928564;29;1968;-76
2023/08/13 11:58:44;;;;;;;;;;;;;;;22.81;30.19;98242.94;4944551;29;1035;-76
2023/08/13 12:01:11;;;;;;;;;;;;;;;22.78;30.04;98240.19;4960744;29;972;-76
2023/08/13 12:03:36;;;;;;;;;;;;;;;22.48;30.70;98235.72;4961088;29;926;-75
2023/08/13 12:06:02;;;;;;;;;;;;;;;22.34;30.74;98232.03;4904562;29;1861;-76
2023/08/13 12:08:28;;;;;;;;;;;;;;;22.36;30.81;98217.41;4904718;29;1032;-76
2023/08/13 12:10:54;;;;;;;;;;;;;;;22.27;31.02;98218.03;4864151;29;970;-75
2023/08/13 12:13:19;;;;;;;;;;;;;;;22.51;30.49;98224.31;4833465;29;1272;-75
2023/08/13 12:15:45;;;;;;;;;;;;;;;22.41;30.60;98213.25;4832960;29;1978;-76
2023/08/13 12:18:10;;;;;;;;;;;;;;;22.38;30.47;98214.13;4863802;29;1578;-76
2023/08/13 12:20:36;;;;;;;;;;;;;;;22.39;30.90;98215.75;4829934;29;1302;-75
2023/08/13 12:23:01;;;;;;;;;;;;;;;22.48;30.75;98207.38;4844937;29;1015;-76
2023/08/13 12:25:29;;;;;;;;;;;;;;;22.42;30.59;98212.00;4844719;29;1232;-76
2023/08/13 12:27:54;;;;;;;;;;;;;;;22.23;31.02;98208.84;4815236;29;1204;-75
2023/08/13 12:30:20;;;;;;;;;;;;;;;22.39;30.90;98210.88;4845538;29;1212;-76
2023/08/13 12:32:46;;;;;;;;;;;;;;;22.40;30.72;98211.66;4843252;29;1903;-75
2023/08/13 12:35:12;;;;;;;;;;;;;;;22.36;30.83;98206.88;4826828;29;1896;-76
2023/08/13 12:37:37;;;;;;;;;;;;;;;22.66;30.49;98207.69;4854484;29;1009;-75
2023/08/13 12:40:03;;;;;;;;;;;;;;;22.33;31.08;98206.97;4863505;29;1320;-75
2023/08/13 12:42:29;;;;;;;;;;;;;;;22.45;30.83;98209.06;4863704;29;985;-76
2023/08/13 12:44:54;;;;;;;;;;;;;;;22.54;30.26;98208.44;4863270;29;1090;-76
2023/08/13 12:47:20;;;;;;;;;;;;;;;22.75;29.97;98205.03;4884926;29;1553;-77
2023/08/13 12:49:45;;;;;;;;;;;;;;;22.34;31.01;98200.88;4906232;29;1822;-76
2023/08/13 12:52:11;;;;;;;;;;;;;;;22.35;31.04;98195.97;4947660;28;1004;-76
2023/08/13 12:54:37;;;;;;;;;;;;;;;22.60;30.54;98201.00;4962389;28;1035;-76